Time;durP1;ratioP1;P1;durP2;ratioP2;P2;SDS_P1;SDS_P2;PMS_P1;PMS_P2;Temp;Humidity;BMP_temperature;BMP_pressure;BME280_temperature;BME280_humidity;BME280_pressure;Samples;Min_cycle;Max_cycle;Signal;HPM_P1;HPM_P2
2021/07/16 00:01:17;;;;;;;3.85;1.83;;;;;;;;;;5036028;28;20033;-67
2021/07/16 00:03:43;;;;;;;13.55;2.70;;;;;;;;;;5035783;28;20041;-67
2021/07/16 00:06:10;;;;;;;10.77;1.98;;;;;;;;;;5035563;28;20037;-67
2021/07/16 00:08:36;;;;;;;10.32;2.08;;;;;;;;;;5035301;28;20126;-66
2021/07/16 00:11:02;;;;;;;6.80;2.40;;;;;;;;;;5035585;28;20057;-66
2021/07/16 00:13:28;;;;;;;8.27;2.00;;;;;;;;;;5035499;28;20025;-66
2021/07/16 00:15:54;;;;;;;7.38;1.77;;;;;;;;;;5035336;28;20169;-67
2021/07/16 00:18:20;;;;;;;14.77;2.97;;;;;;;;;;5035478;28;20040;-67
2021/07/16 00:20:47;;;;;;;5.63;2.00;;;;;;;;;;5035329;28;20028;-67
2021/07/16 00:23:13;;;;;;;4.60;1.70;;;;;;;;;;5035046;28;20081;-67
2021/07/16 00:25:39;;;;;;;6.28;2.22;;;;;;;;;;5034984;28;20030;-67
2021/07/16 00:28:07;;;;;;;4.25;1.90;;;;;;;;;;5035514;28;20034;-66
2021/07/16 00:30:33;;;;;;;6.25;2.08;;;;;;;;;;5035578;28;20386;-67
2021/07/16 00:32:59;;;;;;;6.63;1.80;;;;;;;;;;5035136;28;20021;-67
2021/07/16 00:35:25;;;;;;;4.25;1.80;;;;;;;;;;5035308;28;20083;-66
2021/07/16 00:37:51;;;;;;;6.47;1.98;;;;;;;;;;5034994;28;20120;-66
2021/07/16 00:40:17;;;;;;;7.03;1.85;;;;;;;;;;5034941;28;20490;-67
2021/07/16 00:42:43;;;;;;;4.47;1.75;;;;;;;;;;5034507;28;20025;-66
2021/07/16 00:45:11;;;;;;;7.22;2.35;;;;;;;;;;5034959;28;20470;-68
2021/07/16 00:47:37;;;;;;;4.95;1.55;;;;;;;;;;5035040;28;20034;-67
2021/07/16 00:50:08;;;;;;;4.82;1.80;;;;;;;;;;5034874;28;20028;-67
2021/07/16 00:52:34;;;;;;;6.25;2.22;;;;;;;;;;5034787;28;20526;-67
2021/07/16 00:55:00;;;;;;;6.10;1.85;;;;;;;;;;5034260;28;20462;-68
2021/07/16 00:57:26;;;;;;;4.57;2.00;;;;;;;;;;5034597;28;20033;-68
2021/07/16 00:59:52;;;;;;;6.18;1.73;;;;;;;;;;5031504;28;20029;-67
2021/07/16 01:02:18;;;;;;;8.00;2.15;;;;;;;;;;5031810;28;20505;-69
2021/07/16 01:04:44;;;;;;;7.05;2.15;;;;;;;;;;5032635;28;20075;-65
2021/07/16 01:07:10;;;;;;;8.95;2.10;;;;;;;;;;5033995;28;20048;-65
2021/07/16 01:09:36;;;;;;;5.68;2.00;;;;;;;;;;5034104;28;20026;-65
2021/07/16 01:12:03;;;;;;;8.13;1.90;;;;;;;;;;5034179;28;20124;-65
2021/07/16 01:14:29;;;;;;;4.20;1.60;;;;;;;;;;5033908;28;20107;-66
2021/07/16 01:16:55;;;;;;;5.60;2.05;;;;;;;;;;5034033;28;20036;-65
2021/07/16 01:19:57;;;;;;;5.03;1.95;;;;;;;;;;5033809;28;20100;-66
2021/07/16 01:22:25;;;;;;;4.82;1.83;;;;;;;;;;5032694;28;20045;-66
2021/07/16 01:24:51;;;;;;;5.47;2.00;;;;;;;;;;5032899;28;20404;-66
2021/07/16 01:27:18;;;;;;;4.13;1.77;;;;;;;;;;5034004;28;20048;-65
2021/07/16 01:29:45;;;;;;;9.43;1.90;;;;;;;;;;5033310;28;20021;-66
2021/07/16 01:32:11;;;;;;;5.60;1.77;;;;;;;;;;5033797;28;20036;-65
2021/07/16 01:34:37;;;;;;;9.48;2.13;;;;;;;;;;5033869;28;20022;-66
2021/07/16 01:37:04;;;;;;;4.78;1.80;;;;;;;;;;5033472;28;20022;-65
2021/07/16 01:39:30;;;;;;;3.47;1.50;;;;;;;;;;5033925;28;20032;-65
2021/07/16 01:41:57;;;;;;;7.63;1.60;;;;;;;;;;5033714;28;20017;-65
2021/07/16 01:44:23;;;;;;;7.10;2.50;;;;;;;;;;5033341;28;20032;-65
2021/07/16 01:46:49;;;;;;;8.10;2.00;;;;;;;;;;5033652;28;20429;-65
2021/07/16 01:49:18;;;;;;;5.80;1.83;;;;;;;;;;5033578;28;20374;-65
2021/07/16 01:51:44;;;;;;;6.47;2.00;;;;;;;;;;5033533;28;20147;-65
2021/07/16 01:54:10;;;;;;;3.60;1.50;;;;;;;;;;5032392;28;20044;-66
2021/07/16 01:56:36;;;;;;;4.85;1.95;;;;;;;;;;5033020;28;20021;-66
2021/07/16 01:59:03;;;;;;;5.63;2.15;;;;;;;;;;5033083;28;20025;-65
2021/07/16 02:01:29;;;;;;;3.80;2.05;;;;;;;;;;5033443;28;20080;-65
2021/07/16 02:03:55;;;;;;;5.30;1.90;;;;;;;;;;5033292;28;20034;-65
2021/07/16 02:06:21;;;;;;;8.82;2.38;;;;;;;;;;5033294;28;20536;-65
2021/07/16 02:08:48;;;;;;;8.73;2.15;;;;;;;;;;5033412;28;20021;-66
2021/07/16 02:11:14;;;;;;;5.80;1.90;;;;;;;;;;5033553;28;20028;-65
2021/07/16 02:13:40;;;;;;;11.02;1.92;;;;;;;;;;5032917;28;20048;-65
2021/07/16 02:16:06;;;;;;;8.15;1.98;;;;;;;;;;5033333;28;20052;-65
2021/07/16 02:18:33;;;;;;;5.85;1.80;;;;;;;;;;5032866;28;20025;-65
2021/07/16 02:20:59;;;;;;;7.22;1.85;;;;;;;;;;5033314;28;20063;-66
2021/07/16 02:23:27;;;;;;;3.38;1.75;;;;;;;;;;5032936;28;20025;-66
2021/07/16 02:25:54;;;;;;;6.43;1.95;;;;;;;;;;5031830;28;20057;-66
2021/07/16 02:28:22;;;;;;;5.53;1.45;;;;;;;;;;5032808;28;20072;-65
2021/07/16 02:30:49;;;;;;;7.47;2.00;;;;;;;;;;5033244;28;20032;-66
2021/07/16 02:33:15;;;;;;;4.20;1.70;;;;;;;;;;5033204;28;20505;-65
2021/07/16 02:35:42;;;;;;;5.82;2.10;;;;;;;;;;5033099;28;20061;-66
2021/07/16 02:38:10;;;;;;;6.82;2.38;;;;;;;;;;5033087;28;20029;-66
2021/07/16 02:40:36;;;;;;;9.27;2.08;;;;;;;;;;5033067;28;20032;-66
2021/07/16 02:43:03;;;;;;;4.07;1.48;;;;;;;;;;5032622;28;20100;-65
2021/07/16 02:45:29;;;;;;;7.45;1.60;;;;;;;;;;5032974;28;20033;-66
2021/07/16 02:47:56;;;;;;;3.58;1.30;;;;;;;;;;5032983;28;20040;-66
2021/07/16 02:50:26;;;;;;;5.32;1.50;;;;;;;;;;5032719;28;20026;-66
2021/07/16 02:52:55;;;;;;;4.60;1.70;;;;;;;;;;5032826;28;20052;-66
2021/07/16 02:55:21;;;;;;;4.28;1.58;;;;;;;;;;5032686;28;20457;-65
2021/07/16 02:57:48;;;;;;;3.65;1.83;;;;;;;;;;5032961;28;20433;-65
2021/07/16 03:00:16;;;;;;;7.82;2.20;;;;;;;;;;5033121;28;20462;-66
2021/07/16 03:02:43;;;;;;;4.03;1.63;;;;;;;;;;5032762;28;20056;-65
2021/07/16 03:05:10;;;;;;;6.57;1.73;;;;;;;;;;5034493;28;20083;-66
2021/07/16 03:07:36;;;;;;;9.63;2.05;;;;;;;;;;5036701;28;20483;-65
2021/07/16 03:10:04;;;;;;;6.72;1.83;;;;;;;;;;5036639;28;20034;-65
2021/07/16 03:12:30;;;;;;;10.07;2.03;;;;;;;;;;5036619;28;20032;-65
2021/07/16 03:14:56;;;;;;;6.93;1.90;;;;;;;;;;5036414;28;20056;-65
2021/07/16 03:17:22;;;;;;;4.60;1.50;;;;;;;;;;5036690;28;20048;-66
2021/07/16 03:19:48;;;;;;;8.70;1.70;;;;;;;;;;5036202;28;20033;-69
2021/07/16 03:22:14;;;;;;;6.43;1.95;;;;;;;;;;5036248;28;20100;-66
2021/07/16 03:24:41;;;;;;;4.00;1.73;;;;;;;;;;5036508;28;20029;-66
2021/07/16 03:27:07;;;;;;;5.68;2.00;;;;;;;;;;5036181;28;20068;-66
2021/07/16 03:29:33;;;;;;;5.82;1.80;;;;;;;;;;5036260;28;20433;-66
2021/07/16 03:31:59;;;;;;;12.27;2.20;;;;;;;;;;5036138;28;20022;-66
2021/07/16 03:34:25;;;;;;;6.57;1.73;;;;;;;;;;5035975;28;20025;-65
2021/07/16 03:36:51;;;;;;;4.15;2.10;;;;;;;;;;5035858;28;20025;-65
2021/07/16 03:39:17;;;;;;;10.48;1.73;;;;;;;;;;5035733;28;20083;-67
2021/07/16 03:41:45;;;;;;;8.15;1.83;;;;;;;;;;5035994;28;20465;-65
2021/07/16 03:44:11;;;;;;;5.10;1.85;;;;;;;;;;5036009;28;20035;-65
2021/07/16 03:46:37;;;;;;;10.13;1.92;;;;;;;;;;5035900;28;20036;-65
2021/07/16 03:49:03;;;;;;;5.32;2.03;;;;;;;;;;5035643;28;20033;-65
2021/07/16 03:51:30;;;;;;;9.77;2.72;;;;;;;;;;5035506;28;20033;-65
2021/07/16 03:53:55;;;;;;;15.38;2.17;;;;;;;;;;5035202;28;20097;-65
2021/07/16 03:56:21;;;;;;;14.75;2.92;;;;;;;;;;5035500;28;20517;-65
2021/07/16 03:58:48;;;;;;;5.57;1.92;;;;;;;;;;5035462;28;20104;-66
2021/07/16 04:01:14;;;;;;;17.65;2.17;;;;;;;;;;5035478;28;20022;-66
2021/07/16 04:03:40;;;;;;;8.52;1.90;;;;;;;;;;5035417;28;20037;-65
2021/07/16 04:06:07;;;;;;;8.27;2.40;;;;;;;;;;5035385;28;20168;-65
2021/07/16 04:08:36;;;;;;;5.68;1.65;;;;;;;;;;5035464;28;20036;-65
2021/07/16 04:11:02;;;;;;;9.27;1.88;;;;;;;;;;5035376;28;20032;-65
2021/07/16 04:13:28;;;;;;;34.25;3.38;;;;;;;;;;5035382;28;20028;-68
2021/07/16 04:15:54;;;;;;;24.00;3.28;;;;;;;;;;5034174;28;20052;-65
2021/07/16 04:18:23;;;;;;;12.10;2.42;;;;;;;;;;5035226;28;20032;-66
2021/07/16 04:20:49;;;;;;;9.98;2.50;;;;;;;;;;5035081;28;20025;-65
2021/07/16 04:23:15;;;;;;;8.05;2.35;;;;;;;;;;5034868;28;20076;-65
2021/07/16 04:25:41;;;;;;;7.15;2.08;;;;;;;;;;5034776;28;20053;-65
2021/07/16 04:28:07;;;;;;;4.35;1.52;;;;;;;;;;5034926;28;20068;-65
2021/07/16 04:30:34;;;;;;;3.90;1.35;;;;;;;;;;5034859;28;20045;-66
2021/07/16 04:33:01;;;;;;;5.80;2.00;;;;;;;;;;5034791;28;20030;-65
2021/07/16 04:35:28;;;;;;;7.18;1.77;;;;;;;;;;5034714;28;20108;-65
2021/07/16 04:37:54;;;;;;;3.75;1.88;;;;;;;;;;5034777;28;20040;-65
2021/07/16 04:40:22;;;;;;;4.65;2.53;;;;;;;;;;5034757;28;20415;-65
2021/07/16 04:42:49;;;;;;;8.30;2.05;;;;;;;;;;5034709;28;20053;-65
2021/07/16 04:45:15;;;;;;;6.22;1.80;;;;;;;;;;5034595;28;20061;-65
2021/07/16 04:47:42;;;;;;;9.43;2.30;;;;;;;;;;5034308;28;20041;-65
2021/07/16 04:50:08;;;;;;;5.95;1.92;;;;;;;;;;5034675;28;20021;-65
2021/07/16 04:52:38;;;;;;;10.43;1.98;;;;;;;;;;5034768;28;20061;-65
2021/07/16 04:55:04;;;;;;;7.05;2.13;;;;;;;;;;5034349;28;20083;-65
2021/07/16 04:57:30;;;;;;;20.02;2.63;;;;;;;;;;5034555;28;20135;-65
2021/07/16 04:59:56;;;;;;;11.93;2.30;;;;;;;;;;5034550;28;20022;-65
2021/07/16 05:02:22;;;;;;;15.63;2.90;;;;;;;;;;5034376;28;20127;-66
2021/07/16 05:04:49;;;;;;;17.40;3.33;;;;;;;;;;5033977;28;20021;-66
2021/07/16 05:07:15;;;;;;;17.77;3.65;;;;;;;;;;5034257;28;20524;-65
2021/07/16 05:09:41;;;;;;;26.83;4.40;;;;;;;;;;5034542;28;20042;-65
2021/07/16 05:12:07;;;;;;;20.00;3.72;;;;;;;;;;5034233;28;20052;-66
2021/07/16 05:14:34;;;;;;;12.75;2.42;;;;;;;;;;5033705;28;20045;-65
2021/07/16 05:17:00;;;;;;;9.02;2.22;;;;;;;;;;5034540;28;20037;-65
2021/07/16 05:19:26;;;;;;;3.92;1.92;;;;;;;;;;5033757;28;20022;-66
2021/07/16 05:21:52;;;;;;;8.20;2.03;;;;;;;;;;5033958;28;20083;-68
2021/07/16 05:24:21;;;;;;;7.68;1.80;;;;;;;;;;5033371;28;20021;-66
2021/07/16 05:26:47;;;;;;;3.83;1.60;;;;;;;;;;5032114;28;20044;-67
2021/07/16 05:29:13;;;;;;;10.07;2.05;;;;;;;;;;5033386;28;20026;-66
2021/07/16 05:31:39;;;;;;;12.55;2.35;;;;;;;;;;5033433;28;20072;-66
2021/07/16 05:34:05;;;;;;;7.88;2.10;;;;;;;;;;5033482;28;20025;-66
2021/07/16 05:36:31;;;;;;;11.38;2.63;;;;;;;;;;5033393;28;20028;-69
2021/07/16 05:39:02;;;;;;;15.95;2.45;;;;;;;;;;5033552;28;20033;-67
2021/07/16 05:41:31;;;;;;;11.38;2.10;;;;;;;;;;5033549;28;20025;-68
2021/07/16 05:44:00;;;;;;;13.00;2.30;;;;;;;;;;5033246;28;20121;-67
2021/07/16 05:46:28;;;;;;;8.45;2.10;;;;;;;;;;5033796;28;20025;-67
2021/07/16 05:48:54;;;;;;;6.25;2.10;;;;;;;;;;5033486;28;20401;-66
2021/07/16 05:51:20;;;;;;;7.72;2.33;;;;;;;;;;5032967;28;20025;-67
2021/07/16 05:53:46;;;;;;;8.48;2.55;;;;;;;;;;5033264;28;20029;-67
2021/07/16 05:56:12;;;;;;;8.73;2.30;;;;;;;;;;5033336;28;20048;-67
2021/07/16 05:58:38;;;;;;;5.05;1.88;;;;;;;;;;5033274;28;20022;-67
2021/07/16 06:01:04;;;;;;;10.07;2.55;;;;;;;;;;5031098;28;20481;-68
2021/07/16 06:03:30;;;;;;;5.07;1.80;;;;;;;;;;5032821;28;20028;-66
2021/07/16 06:05:56;;;;;;;7.07;2.92;;;;;;;;;;5032547;28;20025;-67
2021/07/16 06:08:22;;;;;;;8.32;1.70;;;;;;;;;;5045796;28;20025;-68
2021/07/16 06:10:48;;;;;;;6.28;2.00;;;;;;;;;;5052467;28;20382;-66
2021/07/16 06:13:14;;;;;;;5.75;1.90;;;;;;;;;;5051885;28;20032;-67
2021/07/16 06:15:40;;;;;;;4.30;1.70;;;;;;;;;;5051830;28;20053;-66
2021/07/16 06:18:06;;;;;;;4.50;1.63;;;;;;;;;;5052478;28;20409;-67
2021/07/16 06:20:34;;;;;;;4.55;2.00;;;;;;;;;;5052732;28;20098;-66
2021/07/16 06:23:00;;;;;;;4.53;1.70;;;;;;;;;;5052345;28;20025;-67
2021/07/16 06:25:26;;;;;;;7.55;1.73;;;;;;;;;;5052473;28;20598;-66
2021/07/16 06:27:52;;;;;;;4.63;1.52;;;;;;;;;;5051947;28;20152;-67
2021/07/16 06:30:18;;;;;;;7.43;1.80;;;;;;;;;;5052548;28;20029;-67
2021/07/16 06:32:45;;;;;;;10.50;1.95;;;;;;;;;;5052736;28;20029;-67
2021/07/16 06:35:11;;;;;;;6.10;1.75;;;;;;;;;;5052401;28;20021;-67
2021/07/16 06:37:38;;;;;;;3.75;1.70;;;;;;;;;;5050865;28;20029;-66
2021/07/16 06:40:04;;;;;;;4.40;1.60;;;;;;;;;;5051943;28;20025;-66
2021/07/16 06:42:31;;;;;;;4.93;1.60;;;;;;;;;;5052458;28;20033;-68
2021/07/16 06:44:57;;;;;;;5.88;1.75;;;;;;;;;;5052175;28;20021;-67
2021/07/16 06:47:23;;;;;;;4.70;1.67;;;;;;;;;;5052086;28;20155;-66
2021/07/16 06:49:49;;;;;;;4.85;1.60;;;;;;;;;;5052501;28;20100;-67
2021/07/16 06:52:16;;;;;;;8.50;1.63;;;;;;;;;;5052570;28;20025;-66
2021/07/16 06:54:42;;;;;;;2.88;1.45;;;;;;;;;;5052259;28;20025;-66
2021/07/16 06:57:08;;;;;;;5.95;1.55;;;;;;;;;;5052515;28;20029;-67
2021/07/16 06:59:34;;;;;;;7.07;1.83;;;;;;;;;;5052492;28;20037;-67
2021/07/16 07:02:00;;;;;;;6.07;1.65;;;;;;;;;;5052197;28;20470;-67
2021/07/16 07:04:26;;;;;;;5.70;1.80;;;;;;;;;;5052136;28;20079;-66
2021/07/16 07:06:52;;;;;;;6.25;1.95;;;;;;;;;;5051858;28;20541;-68
2021/07/16 07:09:18;;;;;;;6.97;1.70;;;;;;;;;;5052469;28;20034;-67
2021/07/16 07:11:44;;;;;;;4.30;1.70;;;;;;;;;;5052449;28;20032;-66
2021/07/16 07:14:11;;;;;;;6.57;2.00;;;;;;;;;;5052207;28;20044;-67
2021/07/16 07:16:37;;;;;;;5.30;1.77;;;;;;;;;;5052436;28;20481;-67
2021/07/16 07:19:03;;;;;;;3.75;1.80;;;;;;;;;;5052426;28;20036;-67
2021/07/16 07:21:29;;;;;;;4.50;1.65;;;;;;;;;;5052093;28;20017;-67
2021/07/16 07:23:56;;;;;;;20.40;2.25;;;;;;;;;;5051816;28;20036;-67
2021/07/16 07:26:22;;;;;;;10.60;1.88;;;;;;;;;;5052079;28;20037;-69
2021/07/16 07:28:48;;;;;;;6.28;1.83;;;;;;;;;;5052106;28;20025;-66
2021/07/16 07:31:14;;;;;;;4.35;1.67;;;;;;;;;;5051969;28;20040;-67
2021/07/16 07:33:41;;;;;;;4.05;1.58;;;;;;;;;;5051492;28;20029;-67
2021/07/16 07:36:07;;;;;;;9.82;2.17;;;;;;;;;;5050798;28;20029;-67
2021/07/16 07:38:35;;;;;;;4.63;1.58;;;;;;;;;;5050909;28;20252;-67
2021/07/16 07:41:01;;;;;;;7.82;2.28;;;;;;;;;;5052351;28;20032;-67
2021/07/16 07:43:27;;;;;;;6.13;1.40;;;;;;;;;;5050748;28;20025;-67
2021/07/16 07:45:54;;;;;;;3.50;2.10;;;;;;;;;;5052149;28;20025;-67
2021/07/16 07:48:20;;;;;;;4.75;1.63;;;;;;;;;;5050381;28;20040;-67
2021/07/16 07:50:46;;;;;;;2.20;1.42;;;;;;;;;;5051801;28;20025;-67
2021/07/16 07:53:12;;;;;;;3.15;1.50;;;;;;;;;;5055042;28;20025;-67
2021/07/16 07:55:39;;;;;;;3.92;1.27;;;;;;;;;;5055972;28;20027;-67
2021/07/16 07:58:05;;;;;;;3.47;1.50;;;;;;;;;;5056021;28;20040;-66
2021/07/16 08:00:31;;;;;;;6.15;1.48;;;;;;;;;;5055781;28;20029;-67
2021/07/16 08:02:57;;;;;;;3.75;1.50;;;;;;;;;;5055697;28;20032;-68
2021/07/16 08:05:24;;;;;;;5.82;1.70;;;;;;;;;;5055707;28;20025;-68
2021/07/16 08:07:50;;;;;;;5.63;1.70;;;;;;;;;;5055426;28;20508;-67
2021/07/16 08:10:17;;;;;;;3.78;1.73;;;;;;;;;;5055625;28;20021;-68
2021/07/16 08:12:46;;;;;;;5.85;1.50;;;;;;;;;;5055346;28;20024;-68
2021/07/16 08:15:13;;;;;;;6.85;1.83;;;;;;;;;;5055197;28;20049;-67
2021/07/16 08:17:40;;;;;;;5.60;1.60;;;;;;;;;;5055535;28;20021;-68
2021/07/16 08:20:08;;;;;;;5.07;1.65;;;;;;;;;;5054946;28;20099;-67
2021/07/16 08:22:34;;;;;;;4.32;1.38;;;;;;;;;;5055547;28;20037;-67
2021/07/16 08:25:00;;;;;;;6.68;1.77;;;;;;;;;;5055397;28;20039;-68
2021/07/16 08:27:26;;;;;;;3.33;1.48;;;;;;;;;;5055134;28;20033;-67
2021/07/16 08:29:52;;;;;;;4.18;1.75;;;;;;;;;;5055479;28;20494;-68
2021/07/16 08:32:18;;;;;;;3.05;1.40;;;;;;;;;;5055344;28;20025;-67
2021/07/16 08:34:44;;;;;;;6.68;1.70;;;;;;;;;;5054911;28;20025;-68
2021/07/16 08:37:10;;;;;;;5.97;1.77;;;;;;;;;;5055073;28;20090;-67
2021/07/16 08:39:36;;;;;;;5.53;1.60;;;;;;;;;;5055244;28;20362;-67
2021/07/16 08:42:03;;;;;;;6.00;1.33;;;;;;;;;;5055012;28;20478;-67
2021/07/16 08:44:30;;;;;;;6.25;1.70;;;;;;;;;;5054897;28;20435;-67
2021/07/16 08:46:56;;;;;;;5.82;1.70;;;;;;;;;;5055033;28;20056;-67
2021/07/16 08:49:23;;;;;;;5.15;1.70;;;;;;;;;;5054816;28;20100;-67
2021/07/16 08:51:49;;;;;;;5.60;1.80;;;;;;;;;;5054683;28;20029;-67
2021/07/16 08:54:17;;;;;;;5.45;2.00;;;;;;;;;;5054864;28;20385;-67
2021/07/16 08:56:43;;;;;;;6.38;2.40;;;;;;;;;;5054841;28;20024;-67
2021/07/16 08:59:10;;;;;;;4.72;2.00;;;;;;;;;;5054690;28;20112;-67
2021/07/16 09:01:40;;;;;;;7.90;2.72;;;;;;;;;;5054522;28;20033;-67
2021/07/16 09:04:07;;;;;;;5.47;2.10;;;;;;;;;;5054129;28;20021;-67
2021/07/16 09:06:45;;;;;;;7.65;2.88;;;;;;;;;;5054470;28;20021;-67
2021/07/16 09:09:11;;;;;;;8.75;2.22;;;;;;;;;;5054525;28;20032;-67
2021/07/16 09:11:57;;;;;;;6.47;1.85;;;;;;;;;;5054408;28;20021;-67
2021/07/16 09:14:25;;;;;;;5.18;1.80;;;;;;;;;;5054035;28;20052;-67
2021/07/16 09:17:02;;;;;;;4.43;1.55;;;;;;;;;;5054387;28;20029;-67
2021/07/16 09:19:35;;;;;;;6.72;2.03;;;;;;;;;;5054493;28;20032;-66
2021/07/16 09:22:02;;;;;;;5.03;1.70;;;;;;;;;;5054149;28;20028;-69
2021/07/16 09:24:28;;;;;;;9.82;1.67;;;;;;;;;;5054044;28;20083;-70
2021/07/16 09:26:54;;;;;;;7.90;1.50;;;;;;;;;;5053483;28;20043;-69
2021/07/16 09:29:27;;;;;;;5.95;1.80;;;;;;;;;;5053824;28;20028;-69
2021/07/16 09:32:01;;;;;;;12.95;1.95;;;;;;;;;;5053754;28;20025;-70
2021/07/16 09:34:27;;;;;;;13.05;1.92;;;;;;;;;;5053526;28;20055;-68
2021/07/16 09:36:53;;;;;;;6.35;1.80;;;;;;;;;;5053619;28;20025;-71
2021/07/16 09:39:20;;;;;;;8.55;1.98;;;;;;;;;;5053742;28;20031;-70
2021/07/16 09:41:51;;;;;;;4.72;1.80;;;;;;;;;;5053591;28;20029;-69
2021/07/16 09:44:26;;;;;;;7.35;1.58;;;;;;;;;;5053728;28;20049;-69
2021/07/16 09:47:08;;;;;;;4.03;1.90;;;;;;;;;;5053568;28;20492;-70
2021/07/16 09:49:34;;;;;;;4.72;1.60;;;;;;;;;;5053522;28;20025;-70
2021/07/16 09:52:07;;;;;;;2.58;1.50;;;;;;;;;;5053509;28;20043;-71
2021/07/16 09:54:33;;;;;;;4.60;1.30;;;;;;;;;;5053560;28;20056;-70
2021/07/16 09:56:59;;;;;;;5.95;1.80;;;;;;;;;;5053211;28;20048;-69
2021/07/16 09:59:28;;;;;;;5.82;1.42;;;;;;;;;;5053417;28;20469;-71
2021/07/16 10:01:55;;;;;;;6.28;1.85;;;;;;;;;;5053304;28;20374;-70
2021/07/16 10:04:26;;;;;;;3.75;1.83;;;;;;;;;;5051979;28;20021;-71
2021/07/16 10:06:52;;;;;;;3.88;1.50;;;;;;;;;;5053369;28;20025;-71
2021/07/16 10:09:19;;;;;;;4.93;1.88;;;;;;;;;;5053484;28;20033;-71
2021/07/16 10:11:52;;;;;;;9.10;2.20;;;;;;;;;;5053010;28;20052;-72
2021/07/16 10:14:18;;;;;;;3.33;1.45;;;;;;;;;;5052154;28;20485;-70
2021/07/16 10:16:45;;;;;;;5.22;1.73;;;;;;;;;;5053166;28;20480;-71
2021/07/16 10:19:16;;;;;;;7.53;1.38;;;;;;;;;;5053164;28;20457;-70
2021/07/16 10:21:43;;;;;;;5.00;1.70;;;;;;;;;;5053099;28;20047;-71
2021/07/16 10:24:09;;;;;;;4.45;1.88;;;;;;;;;;5053124;28;20021;-70
2021/07/16 10:26:36;;;;;;;3.95;1.70;;;;;;;;;;5053094;28;20060;-69
2021/07/16 10:29:04;;;;;;;5.47;1.70;;;;;;;;;;5052874;28;20029;-71
2021/07/16 10:31:31;;;;;;;7.80;2.10;;;;;;;;;;5052930;28;20021;-70
2021/07/16 10:34:02;;;;;;;5.72;1.80;;;;;;;;;;5052948;28;20057;-70
2021/07/16 10:36:41;;;;;;;7.32;1.73;;;;;;;;;;5052990;28;20036;-71
2021/07/16 10:39:19;;;;;;;4.50;1.60;;;;;;;;;;5052798;28;20032;-71
2021/07/16 10:41:45;;;;;;;5.10;1.52;;;;;;;;;;5053005;28;20063;-71
2021/07/16 10:44:15;;;;;;;3.65;1.70;;;;;;;;;;5052703;28;20025;-71
2021/07/16 10:46:43;;;;;;;3.70;1.42;;;;;;;;;;5053068;28;20032;-71
2021/07/16 10:49:11;;;;;;;4.38;1.65;;;;;;;;;;5053009;28;20033;-71
2021/07/16 10:51:37;;;;;;;4.07;1.40;;;;;;;;;;5052746;28;20473;-71
2021/07/16 10:54:05;;;;;;;3.45;1.58;;;;;;;;;;5052605;28;20104;-70
2021/07/16 10:56:37;;;;;;;3.78;1.67;;;;;;;;;;5052916;28;20025;-66
2021/07/16 10:59:04;;;;;;;3.20;1.40;;;;;;;;;;5052745;28;20033;-66
2021/07/16 11:01:34;;;;;;;4.60;1.45;;;;;;;;;;5053103;28;20048;-69
2021/07/16 11:04:01;;;;;;;5.35;2.10;;;;;;;;;;5052686;28;20021;-70
2021/07/16 11:06:46;;;;;;;5.22;1.70;;;;;;;;;;5052465;28;20477;-67
2021/07/16 11:09:12;;;;;;;5.15;1.50;;;;;;;;;;5053033;28;20151;-67
2021/07/16 11:11:39;;;;;;;3.22;1.60;;;;;;;;;;5052628;28;20025;-66
2021/07/16 11:14:06;;;;;;;2.75;1.70;;;;;;;;;;5052444;28;20033;-71
2021/07/16 11:16:34;;;;;;;4.72;1.30;;;;;;;;;;5052581;28;20036;-68
2021/07/16 11:19:02;;;;;;;3.83;1.60;;;;;;;;;;5052834;28;20029;-72
2021/07/16 11:21:55;;;;;;;2.00;1.42;;;;;;;;;;5052624;28;20389;-77
2021/07/16 11:24:34;;;;;;;6.97;1.50;;;;;;;;;;5052003;28;20037;-75
2021/07/16 11:27:03;;;;;;;7.72;1.60;;;;;;;;;;5055446;28;20041;-76
2021/07/16 11:29:32;;;;;;;3.60;1.70;;;;;;;;;;5056193;28;20028;-76
2021/07/16 11:32:01;;;;;;;3.83;1.48;;;;;;;;;;5056149;28;20083;-75
2021/07/16 11:34:27;;;;;;;5.50;1.90;;;;;;;;;;5056030;28;20063;-74
2021/07/16 11:36:53;;;;;;;3.78;1.50;;;;;;;;;;5056081;28;20067;-72
2021/07/16 11:39:46;;;;;;;3.75;1.83;;;;;;;;;;5056160;28;20033;-74
2021/07/16 11:42:12;;;;;;;4.20;1.70;;;;;;;;;;5055709;28;20117;-72
2021/07/16 11:44:40;;;;;;;6.57;2.00;;;;;;;;;;5055958;28;20064;-74
2021/07/16 11:47:22;;;;;;;4.90;1.73;;;;;;;;;;5056205;28;20037;-74
2021/07/16 11:49:59;;;;;;;2.72;1.70;;;;;;;;;;5055924;28;20035;-77
2021/07/16 11:52:27;;;;;;;10.85;2.10;;;;;;;;;;5055769;28;20049;-79
2021/07/16 11:55:13;;;;;;;5.18;1.80;;;;;;;;;;5055590;28;20024;-69
2021/07/16 11:57:49;;;;;;;6.03;2.05;;;;;;;;;;5055480;28;20442;-72
2021/07/16 12:00:16;;;;;;;4.40;2.03;;;;;;;;;;5055749;28;20017;-69
2021/07/16 12:02:42;;;;;;;6.75;2.15;;;;;;;;;;5055775;28;20017;-73
2021/07/16 12:05:08;;;;;;;6.05;2.17;;;;;;;;;;5055502;28;20072;-74
2021/07/16 12:07:39;;;;;;;5.38;2.00;;;;;;;;;;5055625;28;20123;-72
2021/07/16 12:10:15;;;;;;;8.15;2.22;;;;;;;;;;5055468;28;20025;-72
2021/07/16 12:12:42;;;;;;;6.35;2.08;;;;;;;;;;5053902;28;20060;-74
2021/07/16 12:15:12;;;;;;;6.30;2.30;;;;;;;;;;5054597;28;20516;-71
2021/07/16 12:17:43;;;;;;;4.35;1.92;;;;;;;;;;5053620;28;20025;-69
2021/07/16 12:20:10;;;;;;;5.47;2.00;;;;;;;;;;5055291;28;21141;-73
2021/07/16 12:22:40;;;;;;;3.95;2.03;;;;;;;;;;5055474;28;20029;-69
2021/07/16 12:25:07;;;;;;;4.95;2.17;;;;;;;;;;5055214;28;20067;-72
2021/07/16 12:27:33;;;;;;;3.53;2.03;;;;;;;;;;5055167;28;20044;-72
2021/07/16 12:30:05;;;;;;;5.10;2.35;;;;;;;;;;5054085;28;20025;-73
2021/07/16 12:32:52;;;;;;;5.18;2.17;;;;;;;;;;5053493;28;20029;-71
2021/07/16 12:35:27;;;;;;;4.57;2.53;;;;;;;;;;5054687;28;20029;-71
2021/07/16 12:38:01;;;;;;;4.55;1.98;;;;;;;;;;5053146;28;20119;-71
2021/07/16 12:40:27;;;;;;;4.13;1.88;;;;;;;;;;5054892;28;20040;-74
2021/07/16 12:42:59;;;;;;;4.55;2.03;;;;;;;;;;5054186;28;20048;-73
2021/07/16 12:45:34;;;;;;;4.70;1.80;;;;;;;;;;5053974;28;20512;-72
2021/07/16 12:48:00;;;;;;;2.53;1.98;;;;;;;;;;5054489;28;20137;-72
2021/07/16 12:50:26;;;;;;;5.15;2.28;;;;;;;;;;5054324;28;20025;-75
2021/07/16 12:52:57;;;;;;;3.60;1.80;;;;;;;;;;5054582;28;20126;-72
2021/07/16 12:55:23;;;;;;;3.85;2.05;;;;;;;;;;5054084;28;20025;-72
2021/07/16 12:57:59;;;;;;;3.53;2.05;;;;;;;;;;5054063;28;20404;-68
2021/07/16 13:00:25;;;;;;;2.67;1.67;;;;;;;;;;5054075;28;20031;-68
2021/07/16 13:02:51;;;;;;;3.47;2.20;;;;;;;;;;5054277;28;20382;-70
2021/07/16 13:05:27;;;;;;;4.07;2.05;;;;;;;;;;5054288;28;20033;-70
2021/07/16 13:08:26;;;;;;;4.00;2.10;;;;;;;;;;5054053;28;20033;-69
2021/07/16 13:10:58;;;;;;;3.08;2.10;;;;;;;;;;5052112;28;20047;-70
2021/07/16 13:13:25;;;;;;;3.15;1.92;;;;;;;;;;5053474;28;20104;-68
2021/07/16 13:16:10;;;;;;;5.53;2.00;;;;;;;;;;5053799;28;20045;-74
2021/07/16 13:18:40;;;;;;;3.20;1.98;;;;;;;;;;5054385;28;20032;-74
2021/07/16 13:21:06;;;;;;;3.63;1.90;;;;;;;;;;5054037;28;20036;-69
2021/07/16 13:23:34;;;;;;;4.88;1.80;;;;;;;;;;5054227;28;20043;-69
2021/07/16 13:26:00;;;;;;;4.75;1.88;;;;;;;;;;5053774;28;20033;-73
2021/07/16 13:28:26;;;;;;;4.47;1.95;;;;;;;;;;5053840;28;20029;-67
2021/07/16 13:30:53;;;;;;;3.42;1.77;;;;;;;;;;5053709;28;20033;-69
2021/07/16 13:33:19;;;;;;;2.92;2.00;;;;;;;;;;5053465;28;20081;-72
2021/07/16 13:35:45;;;;;;;5.38;2.00;;;;;;;;;;5053928;28;20032;-65
2021/07/16 13:38:11;;;;;;;3.67;1.85;;;;;;;;;;5053637;28;20033;-71
2021/07/16 13:40:37;;;;;;;2.80;1.70;;;;;;;;;;5053639;28;20025;-71
2021/07/16 13:43:03;;;;;;;3.20;1.88;;;;;;;;;;5053586;28;20465;-72
2021/07/16 13:45:29;;;;;;;3.33;1.90;;;;;;;;;;5051985;28;20025;-67
2021/07/16 13:47:55;;;;;;;3.60;2.00;;;;;;;;;;5053417;28;20041;-69
2021/07/16 13:50:21;;;;;;;3.30;1.58;;;;;;;;;;5053984;28;20481;-70
2021/07/16 13:52:47;;;;;;;4.70;2.20;;;;;;;;;;5053549;28;20386;-68
2021/07/16 13:55:16;;;;;;;3.42;2.00;;;;;;;;;;5053322;28;20040;-71
2021/07/16 13:57:42;;;;;;;3.35;2.03;;;;;;;;;;5052945;28;20029;-73
2021/07/16 14:00:08;;;;;;;3.05;1.98;;;;;;;;;;5052856;28;20032;-70
2021/07/16 14:02:34;;;;;;;2.50;1.80;;;;;;;;;;5053280;28;20107;-72
2021/07/16 14:05:01;;;;;;;5.22;2.20;;;;;;;;;;5053338;28;20033;-71
2021/07/16 14:07:27;;;;;;;4.75;2.13;;;;;;;;;;5052940;28;20140;-70
2021/07/16 14:09:53;;;;;;;3.60;1.95;;;;;;;;;;5053017;28;20403;-67
2021/07/16 14:12:19;;;;;;;3.88;2.33;;;;;;;;;;5052611;28;20029;-71
2021/07/16 14:14:48;;;;;;;5.10;2.00;;;;;;;;;;5052352;28;20056;-69
2021/07/16 14:17:17;;;;;;;5.05;1.95;;;;;;;;;;5051674;28;20035;-70
2021/07/16 14:19:46;;;;;;;3.35;1.80;;;;;;;;;;5052066;28;20052;-71
2021/07/16 14:22:13;;;;;;;5.10;2.22;;;;;;;;;;5052104;28;20028;-71
2021/07/16 14:24:39;;;;;;;4.13;1.98;;;;;;;;;;5051615;28;20071;-71
2021/07/16 14:27:05;;;;;;;4.30;1.98;;;;;;;;;;5051932;28;20145;-70
2021/07/16 14:29:31;;;;;;;5.03;1.90;;;;;;;;;;5052718;28;20551;-69
2021/07/16 14:31:57;;;;;;;5.65;2.10;;;;;;;;;;5053111;28;20107;-72
2021/07/16 14:34:23;;;;;;;5.32;2.05;;;;;;;;;;5052439;28;20501;-71
2021/07/16 14:36:49;;;;;;;3.15;1.90;;;;;;;;;;5052446;28;20033;-70
2021/07/16 14:39:18;;;;;;;3.63;1.88;;;;;;;;;;5052561;28;20017;-71
2021/07/16 14:41:46;;;;;;;6.20;2.08;;;;;;;;;;5052331;28;20537;-70
2021/07/16 14:44:13;;;;;;;3.50;1.90;;;;;;;;;;5052407;28;20462;-69